createdAt,value
2023-05-09T00:01:11.442Z,94.80
2023-05-09T00:03:38.361Z,95.10
2023-05-09T00:06:05.896Z,94.90
2023-05-09T00:08:33.219Z,95.00
2023-05-09T00:14:59.731Z,95.60
2023-05-09T00:17:26.734Z,94.80
2023-05-09T00:19:53.783Z,94.90
2023-05-09T00:22:23.804Z,94.90
2023-05-09T00:24:51.002Z,95.00
2023-05-09T00:27:26.700Z,95.10
2023-05-09T00:29:53.337Z,95.60
2023-05-09T00:32:20.359Z,95.30
2023-05-09T00:34:47.108Z,95.30
2023-05-09T00:37:13.793Z,95.40
2023-05-09T00:39:40.763Z,95.30
2023-05-09T00:42:07.455Z,95.40
2023-05-09T00:44:34.120Z,95.40
2023-05-09T00:47:00.852Z,95.50
2023-05-09T00:49:27.613Z,95.50
2023-05-09T00:51:55.656Z,95.50
2023-05-09T00:54:22.447Z,95.50
2023-05-09T00:56:49.352Z,95.50
2023-05-09T00:59:17.542Z,95.50
2023-05-09T01:01:44.949Z,95.50
2023-05-09T01:04:13.992Z,95.50
2023-05-09T01:07:06.191Z,95.60
2023-05-09T01:09:46.937Z,95.70
2023-05-09T01:12:18.753Z,95.70
2023-05-09T01:15:07.845Z,95.50
2023-05-09T01:18:09.513Z,95.60
2023-05-09T01:20:45.435Z,95.80
2023-05-09T01:23:15.196Z,95.60
2023-05-09T01:25:55.530Z,95.70
2023-05-09T01:28:48.477Z,95.90
2023-05-09T01:31:17.159Z,95.80
2023-05-09T01:33:45.916Z,95.70
2023-05-09T01:36:16.230Z,95.70
2023-05-09T01:38:44.643Z,95.80
2023-05-09T01:41:15.548Z,95.80
2023-05-09T01:43:44.658Z,95.70
2023-05-09T01:46:12.106Z,96.00
2023-05-09T01:48:41.107Z,95.50
2023-05-09T01:51:10.779Z,95.50
2023-05-09T01:53:37.940Z,95.50
2023-05-09T01:56:05.449Z,95.50
2023-05-09T01:58:34.148Z,95.50
2023-05-09T02:01:02.450Z,95.60
2023-05-09T02:03:29.935Z,95.50
2023-05-09T02:05:57.303Z,95.50
2023-05-09T02:08:24.202Z,95.60
2023-05-09T02:10:51.369Z,95.60
2023-05-09T02:13:18.216Z,95.60
2023-05-09T02:15:45.826Z,95.50
2023-05-09T02:18:13.729Z,95.50
2023-05-09T02:20:40.850Z,95.60
2023-05-09T02:23:07.793Z,95.60
2023-05-09T02:25:34.906Z,95.60
2023-05-09T02:28:02.446Z,95.60
2023-05-09T02:30:34.956Z,95.60
2023-05-09T02:33:04.860Z,95.70
2023-05-09T02:35:31.892Z,95.70
2023-05-09T02:38:00.056Z,95.60
2023-05-09T02:40:30.435Z,95.70
2023-05-09T02:42:57.604Z,95.70
2023-05-09T02:45:24.420Z,95.60
2023-05-09T02:47:51.155Z,95.60
2023-05-09T02:50:18.075Z,95.70
2023-05-09T02:52:45.054Z,95.70
2023-05-09T02:55:11.888Z,95.70
2023-05-09T02:57:40.935Z,95.70
2023-05-09T03:00:11.466Z,95.70
2023-05-09T03:02:39.392Z,95.70
2023-05-09T03:05:10.628Z,95.70
2023-05-09T03:07:37.451Z,95.70
2023-05-09T03:10:04.800Z,95.70
2023-05-09T03:12:31.733Z,95.70
2023-05-09T03:14:58.508Z,95.70
2023-05-09T03:17:25.486Z,95.70
2023-05-09T03:19:52.163Z,95.70
2023-05-09T03:22:20.419Z,95.70
2023-05-09T03:24:54.859Z,95.70
2023-05-09T03:27:21.664Z,95.80
2023-05-09T03:29:50.153Z,95.80
2023-05-09T03:32:18.655Z,95.80
2023-05-09T03:34:45.409Z,95.80
2023-05-09T03:37:12.378Z,95.80
2023-05-09T03:39:40.918Z,95.80
2023-05-09T03:42:07.653Z,95.80
2023-05-09T03:44:34.339Z,95.90
2023-05-09T03:47:01.155Z,96.00
2023-05-09T03:49:33.168Z,95.90
2023-05-09T03:51:59.837Z,95.90
2023-05-09T03:54:27.270Z,96.00
2023-05-09T03:56:54.007Z,96.00
2023-05-09T03:59:20.821Z,96.00
2023-05-09T04:01:47.962Z,96.00
2023-05-09T04:04:14.726Z,96.10
2023-05-09T04:06:41.515Z,96.10
2023-05-09T04:09:09.860Z,96.10
2023-05-09T04:11:36.871Z,96.10
2023-05-09T04:14:08.616Z,96.10
2023-05-09T04:16:36.630Z,96.10
2023-05-09T04:19:03.431Z,96.20
2023-05-09T04:21:31.651Z,96.20
2023-05-09T04:24:00.335Z,96.20
2023-05-09T04:26:38.980Z,96.20
2023-05-09T04:29:08.712Z,96.30
2023-05-09T04:31:36.065Z,96.30
2023-05-09T04:34:03.501Z,96.30
2023-05-09T04:36:33.835Z,96.30
2023-05-09T04:39:00.738Z,96.30
2023-05-09T04:41:28.571Z,96.30
2023-05-09T04:43:55.702Z,96.40
2023-05-09T04:46:25.922Z,96.40
2023-05-09T04:48:53.460Z,96.40
2023-05-09T04:51:20.729Z,96.80
2023-05-09T04:53:47.445Z,96.40
2023-05-09T04:56:16.389Z,96.40
2023-05-09T04:58:44.309Z,96.50
2023-05-09T05:01:11.723Z,96.50
2023-05-09T05:03:39.578Z,96.50
2023-05-09T05:06:06.735Z,96.50
2023-05-09T05:08:34.746Z,96.50
2023-05-09T05:11:01.490Z,96.80
2023-05-09T05:13:28.333Z,96.50
2023-05-09T05:15:59.368Z,96.60
2023-05-09T05:18:26.186Z,96.60
2023-05-09T05:20:53.723Z,96.60
2023-05-09T05:23:20.990Z,96.60
2023-05-09T05:25:49.654Z,96.60
2023-05-09T05:28:16.817Z,96.50
2023-05-09T05:30:43.576Z,96.50
2023-05-09T05:33:10.472Z,96.50
2023-05-09T05:35:37.196Z,96.50
2023-05-09T05:38:04.143Z,96.60
2023-05-09T05:40:31.043Z,96.60
2023-05-09T05:43:01.330Z,96.50
2023-05-09T05:45:30.266Z,96.50
2023-05-09T05:47:57.858Z,96.50
2023-05-09T05:50:24.942Z,96.50
2023-05-09T05:52:53.476Z,96.50
2023-05-09T05:55:20.455Z,96.50
2023-05-09T05:57:47.681Z,96.50
2023-05-09T06:00:16.333Z,96.50
2023-05-09T06:02:51.442Z,96.50
2023-05-09T06:05:24.507Z,96.40
2023-05-09T06:07:51.934Z,96.40
2023-05-09T06:10:18.635Z,96.40
2023-05-09T06:12:45.770Z,96.40
2023-05-09T06:15:13.040Z,96.40
2023-05-09T06:17:43.926Z,96.40
2023-05-09T06:20:10.854Z,96.50
2023-05-09T06:22:38.171Z,96.50
2023-05-09T06:25:06.096Z,96.50
2023-05-09T06:27:34.807Z,96.50
2023-05-09T06:30:04.330Z,96.50
2023-05-09T06:32:37.957Z,96.50
2023-05-09T06:35:04.954Z,96.50
2023-05-09T06:37:34.982Z,96.40
2023-05-09T06:40:01.648Z,96.50
2023-05-09T06:42:29.281Z,96.50
2023-05-09T06:44:56.014Z,96.80
2023-05-09T06:47:22.757Z,96.40
2023-05-09T06:49:49.457Z,96.40
2023-05-09T06:52:17.256Z,96.50
2023-05-09T06:54:43.976Z,96.50
2023-05-09T06:57:10.949Z,96.50
2023-05-09T06:59:37.656Z,96.60
2023-05-09T07:02:04.367Z,96.60
2023-05-09T07:04:31.131Z,96.60
2023-05-09T07:06:59.223Z,96.70
2023-05-09T07:09:28.463Z,96.70
2023-05-09T07:11:55.676Z,96.70
2023-05-09T07:14:22.430Z,96.70
2023-05-09T07:16:49.195Z,96.70
2023-05-09T07:19:15.865Z,96.70
2023-05-09T07:21:43.058Z,96.70
2023-05-09T07:24:09.722Z,96.80
2023-05-09T07:26:36.702Z,96.80
2023-05-09T07:29:03.948Z,96.80
2023-05-09T07:31:30.949Z,96.80
2023-05-09T07:33:58.105Z,96.80
2023-05-09T07:36:24.751Z,96.70
2023-05-09T07:38:52.692Z,96.60
2023-05-09T07:41:19.552Z,96.60
2023-05-09T07:43:46.236Z,96.60
2023-05-09T07:46:12.957Z,96.60
2023-05-09T07:48:39.736Z,96.60
2023-05-09T07:51:06.375Z,96.70
2023-05-09T07:53:33.081Z,96.60
2023-05-09T07:56:00.458Z,96.70
2023-05-09T07:58:27.309Z,96.80
2023-05-09T08:00:56.561Z,96.80
2023-05-09T08:03:23.483Z,96.90
2023-05-09T08:05:54.286Z,96.90
2023-05-09T08:08:21.269Z,96.90
2023-05-09T08:10:47.886Z,96.80
2023-05-09T08:13:14.726Z,96.90
2023-05-09T08:15:41.652Z,96.90
2023-05-09T08:18:08.600Z,96.90
2023-05-09T08:20:36.145Z,96.80
2023-05-09T08:23:03.098Z,96.70
2023-05-09T08:25:29.770Z,96.70
2023-05-09T08:27:56.516Z,96.60
2023-05-09T08:30:23.233Z,96.50
2023-05-09T08:32:49.949Z,96.40
2023-05-09T08:35:16.988Z,96.30
2023-05-09T08:37:44.195Z,96.10
2023-05-09T08:40:11.407Z,96.10
2023-05-09T08:42:38.636Z,96.00
2023-05-09T08:45:14.606Z,96.00
2023-05-09T08:47:42.261Z,95.90
2023-05-09T08:50:10.179Z,95.90
2023-05-09T08:52:36.909Z,96.00
2023-05-09T08:55:07.353Z,96.10
2023-05-09T08:57:36.961Z,96.30
2023-05-09T09:00:10.990Z,96.50
2023-05-09T09:02:41.286Z,96.50
2023-05-09T09:05:19.688Z,96.50
2023-05-09T09:07:55.531Z,96.40
2023-05-09T09:10:25.705Z,96.10
2023-05-09T09:12:54.071Z,95.80
2023-05-09T09:15:24.067Z,95.40
2023-05-09T09:17:56.368Z,94.90
2023-05-09T09:20:26.752Z,94.60
2023-05-09T09:23:01.124Z,94.50
2023-05-09T09:25:27.794Z,94.20
2023-05-09T09:27:54.541Z,94.10
2023-05-09T09:30:24.212Z,94.00
2023-05-09T09:32:51.145Z,93.80
2023-05-09T09:35:17.905Z,93.80
2023-05-09T09:37:44.718Z,93.70
2023-05-09T09:40:12.598Z,93.80
2023-05-09T09:42:47.212Z,93.80
2023-05-09T09:45:16.516Z,93.80
2023-05-09T09:47:44.722Z,94.00
2023-05-09T09:50:14.565Z,94.30
2023-05-09T09:52:51.463Z,94.50
2023-05-09T09:55:19.131Z,94.40
2023-05-09T09:57:48.063Z,94.40
2023-05-09T10:00:17.175Z,94.20
2023-05-09T10:02:50.700Z,94.00
2023-05-09T10:05:22.109Z,93.90
2023-05-09T10:07:59.772Z,93.60
2023-05-09T10:10:28.458Z,93.30
2023-05-09T10:12:58.523Z,93.50
2023-05-09T10:15:25.918Z,93.30
2023-05-09T10:17:56.859Z,93.20
2023-05-09T10:20:25.072Z,93.00
2023-05-09T10:22:57.140Z,93.00
2023-05-09T10:25:36.687Z,92.50
2023-05-09T10:28:08.770Z,92.40
2023-05-09T10:30:44.129Z,92.50
2023-05-09T10:33:16.246Z,92.50
2023-05-09T10:35:47.211Z,92.80
2023-05-09T10:38:14.338Z,93.20
2023-05-09T10:40:41.905Z,93.70
2023-05-09T10:43:08.661Z,94.10
2023-05-09T10:45:36.739Z,94.20
2023-05-09T10:48:07.084Z,94.00
2023-05-09T10:50:35.640Z,93.40
2023-05-09T10:53:07.534Z,92.70
2023-05-09T10:55:55.260Z,91.70
2023-05-09T10:58:22.086Z,90.60
2023-05-09T11:00:50.340Z,91.10
2023-05-09T11:03:20.454Z,90.40
2023-05-09T11:05:49.603Z,90.30
2023-05-09T11:08:29.771Z,90.00
2023-05-09T11:11:00.171Z,86.90
2023-05-09T11:13:31.742Z,88.30
2023-05-09T11:16:01.659Z,86.50
2023-05-09T11:18:29.465Z,83.90
2023-05-09T11:20:56.856Z,83.60
2023-05-09T11:23:27.170Z,82.40
2023-05-09T11:26:03.681Z,81.30
2023-05-09T11:28:32.428Z,81.80
2023-05-09T11:31:17.866Z,81.90
2023-05-09T11:33:48.517Z,80.00
2023-05-09T11:36:19.986Z,80.20
2023-05-09T11:38:47.870Z,78.90
2023-05-09T11:41:15.521Z,79.40
2023-05-09T11:43:44.343Z,79.60
2023-05-09T11:46:11.569Z,80.10
2023-05-09T11:48:39.850Z,79.20
2023-05-09T11:51:07.474Z,78.70
2023-05-09T11:53:34.341Z,78.50
2023-05-09T11:56:04.872Z,78.10
2023-05-09T11:58:31.687Z,77.30
2023-05-09T12:00:58.620Z,77.70
2023-05-09T12:03:25.592Z,76.20
2023-05-09T12:05:54.612Z,76.00
2023-05-09T12:08:22.878Z,75.20
2023-05-09T12:10:49.854Z,75.10
2023-05-09T12:13:17.962Z,74.90
2023-05-09T12:15:44.818Z,74.80
2023-05-09T12:18:11.490Z,74.40
2023-05-09T12:20:41.022Z,73.80
2023-05-09T12:23:08.840Z,72.90
2023-05-09T12:25:35.698Z,73.50
2023-05-09T12:28:02.915Z,74.40
2023-05-09T12:30:29.950Z,74.00
2023-05-09T12:32:57.336Z,74.20
2023-05-09T12:35:24.075Z,73.70
2023-05-09T12:37:58.697Z,74.20
2023-05-09T12:40:26.075Z,72.90
2023-05-09T12:42:54.323Z,73.10
2023-05-09T12:45:21.103Z,72.60
2023-05-09T12:47:51.937Z,71.90
2023-05-09T12:50:19.073Z,71.10
2023-05-09T12:53:02.774Z,71.60
2023-05-09T12:55:31.609Z,70.40
2023-05-09T12:58:00.538Z,70.80
2023-05-09T13:00:27.661Z,70.30
2023-05-09T13:02:54.915Z,70.20
2023-05-09T13:05:23.180Z,69.50
2023-05-09T13:07:54.550Z,69.20
2023-05-09T13:10:27.254Z,68.70
2023-05-09T13:12:54.605Z,68.20
2023-05-09T13:15:22.682Z,68.80
2023-05-09T13:17:51.579Z,68.70
2023-05-09T13:20:19.240Z,69.20
2023-05-09T13:22:46.393Z,69.30
2023-05-09T13:25:13.599Z,69.20
2023-05-09T13:27:40.312Z,69.10
2023-05-09T13:30:07.652Z,69.30
2023-05-09T13:32:34.850Z,69.40
2023-05-09T13:35:01.743Z,69.50
2023-05-09T13:37:28.545Z,69.10
2023-05-09T13:39:55.641Z,68.80
2023-05-09T13:42:22.294Z,68.60
2023-05-09T13:44:48.917Z,68.40
2023-05-09T13:47:15.574Z,68.50
2023-05-09T13:49:42.224Z,68.80
2023-05-09T13:52:08.921Z,68.80
2023-05-09T13:54:35.642Z,68.70
2023-05-09T13:57:03.877Z,68.60
2023-05-09T13:59:31.458Z,68.10
2023-05-09T14:01:59.861Z,67.70
2023-05-09T14:04:27.993Z,67.70
2023-05-09T14:06:55.537Z,66.80
2023-05-09T14:09:22.887Z,66.50
2023-05-09T14:11:53.195Z,66.10
2023-05-09T14:14:20.909Z,66.00
2023-05-09T14:16:48.151Z,66.10
2023-05-09T14:19:15.441Z,67.80
2023-05-09T14:21:47.163Z,69.10
2023-05-09T14:24:16.037Z,70.10
2023-05-09T14:26:43.156Z,70.70
2023-05-09T14:29:09.927Z,71.10
2023-05-09T14:31:36.908Z,71.60
2023-05-09T14:34:05.128Z,72.30
2023-05-09T14:36:35.090Z,72.80
2023-05-09T14:39:02.288Z,73.50
2023-05-09T14:41:28.915Z,73.90
2023-05-09T14:43:55.625Z,74.20
2023-05-09T14:46:24.720Z,74.70
2023-05-09T14:48:52.523Z,75.10
2023-05-09T14:51:19.231Z,75.90
2023-05-09T14:53:47.141Z,76.40
2023-05-09T14:56:14.034Z,77.30
2023-05-09T14:58:40.797Z,77.80
2023-05-09T15:01:07.565Z,78.20
2023-05-09T15:03:34.319Z,78.50
2023-05-09T15:06:01.178Z,79.00
2023-05-09T15:08:28.286Z,79.50
2023-05-09T15:10:55.004Z,79.60
2023-05-09T15:13:21.820Z,79.80
2023-05-09T15:15:48.528Z,80.20
2023-05-09T15:18:17.016Z,80.60
2023-05-09T15:20:44.132Z,81.00
2023-05-09T15:23:12.372Z,81.30
2023-05-09T15:25:41.615Z,81.80
2023-05-09T15:28:08.293Z,82.40
2023-05-09T15:30:38.140Z,82.20
2023-05-09T15:33:05.118Z,81.90
2023-05-09T15:35:31.919Z,82.20
2023-05-09T15:37:58.878Z,82.90
2023-05-09T15:40:25.834Z,84.50
2023-05-09T15:42:52.757Z,84.90
2023-05-09T15:45:19.545Z,85.90
2023-05-09T15:47:46.374Z,86.60
2023-05-09T15:50:13.285Z,87.40
2023-05-09T15:52:40.094Z,88.30
2023-05-09T15:55:07.579Z,89.30
2023-05-09T15:57:34.264Z,89.90
2023-05-09T16:00:00.944Z,90.20
2023-05-09T16:02:28.271Z,90.60
2023-05-09T16:04:55.001Z,90.90
2023-05-09T16:07:22.011Z,91.30
2023-05-09T16:09:48.957Z,91.60
2023-05-09T16:12:15.598Z,91.80
2023-05-09T16:14:42.285Z,92.10
2023-05-09T16:17:08.942Z,92.20
2023-05-09T16:19:36.098Z,92.50
2023-05-09T16:22:03.122Z,92.70
2023-05-09T16:24:31.589Z,92.90
2023-05-09T16:26:58.444Z,93.00
2023-05-09T16:29:25.234Z,93.20
2023-05-09T16:31:52.347Z,93.40
2023-05-09T16:34:19.049Z,93.40
2023-05-09T16:36:47.357Z,93.40
2023-05-09T16:39:14.000Z,93.60
2023-05-09T16:41:40.614Z,93.70
2023-05-09T16:44:07.221Z,93.80
2023-05-09T16:46:33.930Z,93.80
2023-05-09T16:49:00.633Z,93.90
2023-05-09T16:51:27.787Z,94.00
2023-05-09T16:53:54.478Z,94.00
2023-05-09T16:56:22.465Z,94.10
2023-05-09T16:58:49.800Z,94.20
2023-05-09T17:01:16.531Z,94.30
2023-05-09T17:03:43.338Z,94.20
2023-05-09T17:06:10.329Z,94.20
2023-05-09T17:08:37.042Z,94.20
2023-05-09T17:11:04.426Z,94.20
2023-05-09T17:13:31.201Z,94.20
2023-05-09T17:15:58.038Z,94.20
2023-05-09T17:18:35.977Z,94.10
2023-05-09T17:21:04.364Z,94.10
2023-05-09T17:23:31.555Z,94.20
2023-05-09T17:25:58.366Z,94.20
2023-05-09T17:28:25.242Z,94.30
2023-05-09T17:30:51.882Z,94.30
2023-05-09T17:33:19.211Z,94.30
2023-05-09T17:35:49.241Z,94.40
2023-05-09T17:38:16.345Z,94.50
2023-05-09T17:40:43.580Z,94.50
2023-05-09T17:43:10.620Z,94.60
2023-05-09T17:45:37.884Z,95.00
2023-05-09T17:48:04.690Z,94.70
2023-05-09T17:50:31.559Z,94.70
2023-05-09T17:52:58.567Z,94.80
2023-05-09T17:55:25.311Z,94.80
2023-05-09T17:57:52.270Z,94.70
2023-05-09T18:00:19.632Z,94.70
2023-05-09T18:02:47.959Z,94.70
2023-05-09T18:05:14.697Z,94.60
2023-05-09T18:07:41.369Z,94.60
2023-05-09T18:10:08.883Z,94.60
2023-05-09T18:12:37.351Z,94.70
2023-05-09T18:15:04.880Z,94.70
2023-05-09T18:17:31.670Z,94.80
2023-05-09T18:19:58.493Z,94.80
2023-05-09T18:22:25.492Z,94.90
2023-05-09T18:24:52.807Z,95.00
2023-05-09T18:27:19.463Z,95.00
2023-05-09T18:29:47.400Z,95.00
2023-05-09T18:32:14.252Z,95.00
2023-05-09T18:34:41.081Z,95.00
2023-05-09T18:37:07.914Z,95.10
2023-05-09T18:39:34.682Z,95.10
2023-05-09T18:42:01.407Z,95.20
2023-05-09T18:44:29.720Z,95.20
2023-05-09T18:46:57.838Z,95.20
2023-05-09T18:49:27.345Z,95.20
2023-05-09T18:51:54.836Z,95.20
2023-05-09T18:54:21.512Z,95.20
2023-05-09T18:56:49.304Z,95.30
2023-05-09T18:59:16.276Z,95.30
2023-05-09T19:01:43.967Z,95.30
2023-05-09T19:04:10.887Z,95.40
2023-05-09T19:06:37.781Z,95.40
2023-05-09T19:09:05.263Z,95.50
2023-05-09T19:11:31.931Z,95.50
2023-05-09T19:13:59.730Z,95.50
2023-05-09T19:16:26.801Z,95.60
2023-05-09T19:18:57.794Z,95.60
2023-05-09T19:21:25.391Z,95.70
2023-05-09T19:23:52.445Z,95.60
2023-05-09T19:26:19.960Z,95.60
2023-05-09T19:28:47.057Z,95.70
2023-05-09T19:31:15.401Z,95.70
2023-05-09T19:33:45.359Z,95.80
2023-05-09T19:36:12.456Z,95.80
2023-05-09T19:38:39.485Z,95.80
2023-05-09T19:41:06.221Z,95.90
2023-05-09T19:43:32.968Z,95.80
2023-05-09T19:46:00.033Z,95.90
2023-05-09T19:48:26.880Z,95.90
2023-05-09T19:50:57.729Z,95.80
2023-05-09T19:53:25.216Z,95.90
2023-05-09T19:55:52.172Z,95.90
2023-05-09T19:58:19.173Z,95.90
2023-05-09T20:00:46.246Z,95.90
2023-05-09T20:03:13.037Z,96.00
2023-05-09T20:05:40.004Z,96.00
2023-05-09T20:08:06.938Z,96.00
2023-05-09T20:10:34.113Z,96.10
2023-05-09T20:13:01.105Z,96.50
2023-05-09T20:15:28.011Z,96.10
2023-05-09T20:17:54.881Z,96.10
2023-05-09T20:20:21.822Z,96.40
2023-05-09T20:22:48.560Z,96.00
2023-05-09T20:25:15.420Z,96.00
2023-05-09T20:27:42.198Z,96.00
2023-05-09T20:30:09.493Z,96.00
2023-05-09T20:32:36.278Z,96.00
2023-05-09T20:35:03.484Z,96.00
2023-05-09T20:37:30.306Z,96.10
2023-05-09T20:39:57.278Z,96.30
2023-05-09T20:42:24.267Z,96.30
2023-05-09T20:44:52.152Z,96.40
2023-05-09T20:47:18.882Z,96.40
2023-05-09T20:49:45.608Z,96.40
2023-05-09T20:52:12.560Z,96.50
2023-05-09T20:54:39.264Z,96.70
2023-05-09T20:57:06.019Z,96.90
2023-05-09T20:59:32.739Z,97.10
2023-05-09T21:01:59.656Z,97.30
2023-05-09T21:04:26.481Z,97.40
2023-05-09T21:06:53.330Z,97.50
2023-05-09T21:09:20.145Z,97.60
2023-05-09T21:11:46.892Z,97.80
2023-05-09T21:14:13.977Z,98.00
2023-05-09T21:16:40.808Z,98.30
2023-05-09T21:19:08.716Z,98.60
2023-05-09T21:21:35.611Z,98.80
2023-05-09T21:24:08.834Z,99.00
2023-05-09T21:26:36.373Z,99.20
2023-05-09T21:29:03.263Z,99.40
2023-05-09T21:31:30.067Z,99.50
2023-05-09T21:33:58.349Z,99.70
2023-05-09T21:36:25.726Z,99.90
2023-05-09T21:38:52.481Z,99.90
2023-05-09T21:41:19.240Z,99.90
2023-05-09T21:43:46.033Z,99.90
2023-05-09T21:46:12.842Z,99.90
2023-05-09T21:48:39.564Z,99.90
2023-05-09T21:51:07.497Z,99.90
2023-05-09T21:53:34.288Z,99.90
2023-05-09T21:56:01.060Z,99.90
2023-05-09T21:58:27.792Z,99.90
2023-05-09T22:00:54.453Z,99.90
2023-05-09T22:03:21.270Z,99.90
2023-05-09T22:05:47.992Z,99.90
2023-05-09T22:08:14.646Z,99.90
2023-05-09T22:10:41.319Z,99.90
2023-05-09T22:13:08.872Z,99.90
2023-05-09T22:15:35.628Z,99.90
2023-05-09T22:18:02.327Z,99.90
2023-05-09T22:20:28.932Z,99.90
2023-05-09T22:22:56.219Z,99.90
2023-05-09T22:25:23.008Z,99.90
2023-05-09T22:27:49.709Z,99.90
2023-05-09T22:30:16.799Z,99.90
2023-05-09T22:32:43.744Z,99.90
2023-05-09T22:35:10.561Z,99.90
2023-05-09T22:37:37.455Z,99.90
2023-05-09T22:40:05.330Z,99.90
2023-05-09T22:42:34.109Z,99.90
2023-05-09T22:45:01.480Z,99.90
2023-05-09T22:47:28.204Z,99.90
2023-05-09T22:49:54.976Z,99.90
2023-05-09T22:52:21.798Z,99.90
2023-05-09T22:54:48.423Z,99.90
2023-05-09T22:57:17.755Z,99.90
2023-05-09T22:59:44.747Z,99.90
2023-05-09T23:02:11.526Z,99.90
2023-05-09T23:04:38.165Z,99.90
2023-05-09T23:07:04.843Z,99.90
2023-05-09T23:09:31.552Z,99.90
2023-05-09T23:11:59.429Z,99.90
2023-05-09T23:14:26.095Z,99.90
2023-05-09T23:16:53.043Z,99.90
2023-05-09T23:19:19.979Z,99.90
2023-05-09T23:21:46.668Z,99.90
2023-05-09T23:24:13.362Z,99.90
2023-05-09T23:26:40.110Z,99.90
2023-05-09T23:29:06.842Z,99.90
2023-05-09T23:31:33.529Z,99.90
2023-05-09T23:34:00.198Z,99.90
2023-05-09T23:36:26.887Z,99.90
2023-05-09T23:38:53.678Z,99.90
2023-05-09T23:41:21.860Z,99.90
2023-05-09T23:43:48.529Z,99.90
2023-05-09T23:46:15.889Z,99.90
2023-05-09T23:48:42.599Z,99.90
2023-05-09T23:51:09.360Z,99.90
2023-05-09T23:53:36.005Z,99.90
2023-05-09T23:56:02.942Z,99.90
2023-05-09T23:58:29.675Z,99.90
